Time;durP1;ratioP1;P1;durP2;ratioP2;P2;SDS_P1;SDS_P2;PMS_P1;PMS_P2;Temp;Humidity;BMP_temperature;BMP_pressure;BME280_temperature;BME280_humidity;BME280_pressure;Samples;Min_cycle;Max_cycle;Signal;HPM_P1;HPM_P2
2022/01/04 00:01:57;;;;;;;2.90;0.82;;;31.20;93.30;;;;;;4965819;28;20075;-73
2022/01/04 00:04:25;;;;;;;7.22;0.88;;;31.30;92.90;;;;;;4964983;28;20257;-75
2022/01/04 00:06:54;;;;;;;6.55;1.00;;;31.10;92.50;;;;;;4969381;28;20470;-74
2022/01/04 00:09:22;;;;;;;5.47;1.00;;;31.30;92.40;;;;;;4967318;28;20520;-75
2022/01/04 00:14:23;;;;;;;3.65;0.90;;;32.20;91.80;;;;;;4962377;28;20034;-75
2022/01/04 00:16:54;;;;;;;3.45;0.50;;;31.90;90.50;;;;;;4973746;28;20717;-72
2022/01/04 00:19:22;;;;;;;2.83;0.70;;;31.40;90.90;;;;;;4971153;28;20029;-76
2022/01/04 00:21:50;;;;;;;2.53;0.50;;;31.00;91.00;;;;;;4971215;28;20050;-76
2022/01/04 00:24:17;;;;;;;3.15;0.70;;;30.80;91.40;;;;;;4964184;28;20165;-75
2022/01/04 00:26:45;;;;;;;6.85;0.95;;;31.20;91.60;;;;;;4963827;28;20516;-75
2022/01/04 00:29:12;;;;;;;3.20;0.73;;;31.50;91.60;;;;;;4970171;28;20035;-75
2022/01/04 00:31:40;;;;;;;5.72;1.15;;;31.70;91.20;;;;;;4970845;28;20098;-75
2022/01/04 00:34:07;;;;;;;11.07;1.45;;;32.00;91.70;;;;;;4970656;28;20058;-77
2022/01/04 00:36:34;;;;;;;6.20;0.95;;;31.70;91.80;;;;;;4971586;28;20030;-76
2022/01/04 00:39:02;;;;;;;2.97;0.98;;;31.50;91.10;;;;;;4972612;28;20181;-74
2022/01/04 00:41:30;;;;;;;4.70;0.93;;;31.00;91.00;;;;;;4963580;28;20055;-76
2022/01/04 00:43:58;;;;;;;3.50;0.70;;;30.60;90.80;;;;;;4968763;28;20041;-75
2022/01/04 00:46:25;;;;;;;4.53;0.70;;;30.90;91.60;;;;;;4969671;28;20165;-75
2022/01/04 00:49:11;;;;;;;4.60;1.55;;;31.30;90.90;;;;;;4969946;28;20038;-75
2022/01/04 00:51:47;;;;;;;3.80;0.82;;;31.00;90.60;;;;;;4955400;28;20451;-76
2022/01/04 00:54:16;;;;;;;6.88;1.10;;;30.70;90.90;;;;;;4968622;28;20027;-77
2022/01/04 00:56:45;;;;;;;4.20;1.05;;;30.40;91.40;;;;;;4968533;28;20117;-76
2022/01/04 00:59:12;;;;;;;4.18;1.00;;;30.30;91.90;;;;;;4966583;28;20482;-74
2022/01/04 01:01:40;;;;;;;4.22;0.57;;;30.20;92.40;;;;;;4969822;28;20455;-75
2022/01/04 01:04:09;;;;;;;3.80;0.77;;;30.30;92.00;;;;;;4974841;28;20399;-73
2022/01/04 01:06:36;;;;;;;3.67;1.08;;;30.40;92.10;;;;;;4978152;28;20490;-73
2022/01/04 01:09:05;;;;;;;5.75;1.17;;;30.70;92.20;;;;;;4964633;28;20069;-74
2022/01/04 01:11:32;;;;;;;2.90;0.68;;;30.80;91.60;;;;;;4970450;28;20111;-73
2022/01/04 01:14:00;;;;;;;4.63;1.05;;;30.60;90.50;;;;;;4969040;28;20027;-75
2022/01/04 01:16:27;;;;;;;3.95;0.90;;;30.30;90.90;;;;;;4983929;28;20080;-75
2022/01/04 01:18:54;;;;;;;4.63;0.85;;;30.50;90.80;;;;;;4965939;28;20032;-75
2022/01/04 01:21:22;;;;;;;3.60;0.50;;;31.20;90.40;;;;;;4977360;28;20161;-76
2022/01/04 01:23:49;;;;;;;6.28;1.48;;;31.80;89.50;;;;;;4967951;28;20047;-76
2022/01/04 01:26:17;;;;;;;4.78;0.50;;;32.10;88.10;;;;;;4968899;28;20121;-75
2022/01/04 01:28:44;;;;;;;6.78;0.60;;;32.50;88.70;;;;;;4969259;28;20046;-74
2022/01/04 01:31:12;;;;;;;2.03;0.50;;;33.00;88.30;;;;;;4972650;28;20453;-74
2022/01/04 01:33:39;;;;;;;1.85;0.60;;;32.80;87.10;;;;;;4963589;28;20029;-75
2022/01/04 01:36:07;;;;;;;6.38;0.80;;;32.60;86.70;;;;;;4961836;28;20034;-74
2022/01/04 01:38:34;;;;;;;4.90;1.10;;;32.20;87.80;;;;;;4964788;28;20035;-74
2022/01/04 01:41:02;;;;;;;4.50;0.75;;;32.10;89.70;;;;;;4964826;28;20107;-74
2022/01/04 01:43:29;;;;;;;3.20;0.57;;;31.60;88.50;;;;;;4966045;28;20034;-73
2022/01/04 01:45:57;;;;;;;6.05;0.55;;;31.20;89.60;;;;;;4973828;28;20081;-76
2022/01/04 01:48:25;;;;;;;5.13;1.05;;;31.10;89.30;;;;;;4970759;28;20509;-73
2022/01/04 01:50:53;;;;;;;3.05;0.70;;;31.00;89.40;;;;;;4978936;28;20109;-75
2022/01/04 01:53:21;;;;;;;5.53;0.80;;;31.60;88.40;;;;;;4981751;28;20150;-74
2022/01/04 01:55:48;;;;;;;2.92;0.80;;;32.20;87.50;;;;;;4978963;28;20022;-73
2022/01/04 01:58:16;;;;;;;5.35;0.73;;;32.50;87.40;;;;;;4972249;28;20039;-75
2022/01/04 02:00:43;;;;;;;3.25;0.52;;;33.00;87.50;;;;;;4974571;28;20047;-75
2022/01/04 02:03:10;;;;;;;3.63;0.63;;;33.50;89.30;;;;;;4970193;28;20053;-75
2022/01/04 02:05:38;;;;;;;3.28;0.57;;;33.20;84.40;;;;;;4966113;28;20035;-74
2022/01/04 02:08:06;;;;;;;3.85;0.82;;;32.70;83.90;;;;;;4963435;28;20141;-73
2022/01/04 02:10:34;;;;;;;7.18;0.95;;;32.00;84.10;;;;;;4961004;28;20355;-75
2022/01/04 02:13:02;;;;;;;2.10;0.40;;;32.20;87.60;;;;;;4968034;28;20109;-74
2022/01/04 02:15:32;;;;;;;9.07;2.03;;;32.70;84.40;;;;;;4970361;28;20023;-74
2022/01/04 02:18:00;;;;;;;3.72;0.60;;;32.40;84.60;;;;;;4973000;28;20027;-75
2022/01/04 02:20:28;;;;;;;5.53;0.70;;;32.20;85.20;;;;;;4971822;28;20034;-74
2022/01/04 02:22:56;;;;;;;4.63;0.88;;;32.10;86.30;;;;;;4981168;28;20043;-74
2022/01/04 02:25:23;;;;;;;2.85;1.05;;;31.60;87.40;;;;;;4973842;28;20030;-74
2022/01/04 02:27:52;;;;;;;4.13;1.00;;;31.30;87.00;;;;;;4961321;28;20030;-74
2022/01/04 02:30:21;;;;;;;4.25;0.65;;;31.00;86.40;;;;;;4966322;28;20035;-74
2022/01/04 02:32:49;;;;;;;2.80;0.73;;;31.10;86.60;;;;;;4968464;28;20030;-75
2022/01/04 02:35:20;;;;;;;2.42;0.75;;;32.00;88.60;;;;;;4976396;28;20492;-74
2022/01/04 02:37:47;;;;;;;2.95;0.70;;;32.20;84.10;;;;;;4970623;28;20448;-74
2022/01/04 02:40:15;;;;;;;4.80;0.80;;;32.60;83.20;;;;;;4967970;28;20022;-74
2022/01/04 02:42:43;;;;;;;3.25;1.05;;;32.90;82.50;;;;;;4969865;28;20039;-75
2022/01/04 02:45:11;;;;;;;1.77;0.90;;;32.50;81.70;;;;;;4973957;28;20014;-75
2022/01/04 02:47:39;;;;;;;2.42;0.70;;;31.90;81.90;;;;;;4972561;28;20029;-74
2022/01/04 02:50:07;;;;;;;2.00;0.47;;;31.80;82.30;;;;;;4971053;28;20113;-74
2022/01/04 02:52:35;;;;;;;4.35;0.75;;;32.40;82.80;;;;;;4975596;28;20023;-76
2022/01/04 02:55:06;;;;;;;3.63;0.70;;;32.80;81.10;;;;;;4971635;28;20033;-75
2022/01/04 02:57:34;;;;;;;3.03;0.73;;;32.90;81.60;;;;;;4974788;28;20603;-75
2022/01/04 03:00:04;;;;;;;2.85;0.50;;;33.10;82.90;;;;;;4973761;28;20541;-75
2022/01/04 03:02:32;;;;;;;2.65;0.95;;;33.10;83.80;;;;;;4972499;28;20043;-74
2022/01/04 03:04:59;;;;;;;5.32;0.93;;;33.30;85.70;;;;;;4972774;28;20023;-75
2022/01/04 03:07:26;;;;;;;2.58;0.65;;;33.60;88.10;;;;;;4970003;28;20058;-74
2022/01/04 03:09:54;;;;;;;3.00;0.70;;;33.40;84.50;;;;;;4991728;28;20108;-74
2022/01/04 03:12:21;;;;;;;5.70;1.00;;;33.10;85.20;;;;;;4976149;28;20231;-74
2022/01/04 03:14:49;;;;;;;4.57;0.68;;;32.90;85.40;;;;;;4967575;28;20031;-74
2022/01/04 03:17:17;;;;;;;4.32;1.33;;;32.80;85.80;;;;;;4966778;28;20110;-74
2022/01/04 03:19:44;;;;;;;2.35;1.23;;;33.00;84.10;;;;;;4971739;28;20452;-74
2022/01/04 03:22:11;;;;;;;2.50;0.70;;;33.50;84.70;;;;;;4961378;28;20031;-74
2022/01/04 03:24:38;;;;;;;7.03;1.02;;;33.40;83.30;;;;;;4970053;28;20129;-75
2022/01/04 03:27:06;;;;;;;4.53;1.23;;;32.90;85.00;;;;;;4965877;28;20551;-74
2022/01/04 03:29:34;;;;;;;2.15;0.80;;;32.50;86.30;;;;;;4960828;28;20030;-74
2022/01/04 03:32:01;;;;;;;8.02;1.05;;;32.70;87.50;;;;;;4964169;28;20562;-75
2022/01/04 03:34:28;;;;;;;5.38;1.20;;;32.40;86.80;;;;;;4970497;28;20109;-75
2022/01/04 03:36:56;;;;;;;6.70;1.10;;;31.60;88.00;;;;;;4976821;28;20065;-75
2022/01/04 03:39:23;;;;;;;5.10;0.75;;;31.70;88.30;;;;;;4969020;28;20070;-75
2022/01/04 03:41:51;;;;;;;3.92;0.88;;;31.80;88.00;;;;;;4967252;28;20043;-76
2022/01/04 03:44:20;;;;;;;7.32;1.63;;;32.00;87.20;;;;;;4967189;28;20045;-76
2022/01/04 03:46:50;;;;;;;6.03;0.85;;;32.30;86.40;;;;;;4982408;28;20576;-74
2022/01/04 03:49:17;;;;;;;3.10;0.82;;;32.40;85.40;;;;;;4975753;28;20521;-75
2022/01/04 03:51:45;;;;;;;5.32;0.63;;;32.40;85.20;;;;;;4965665;28;20054;-75
2022/01/04 03:54:13;;;;;;;5.25;0.90;;;32.60;84.90;;;;;;4966307;28;20031;-73
2022/01/04 03:56:41;;;;;;;5.57;1.25;;;32.60;85.20;;;;;;4974848;28;20042;-73
2022/01/04 03:59:08;;;;;;;6.60;1.05;;;32.50;84.00;;;;;;4969122;28;20403;-74
2022/01/04 04:01:35;;;;;;;4.05;0.98;;;32.50;84.10;;;;;;4965240;28;20097;-76
2022/01/04 04:04:03;;;;;;;3.90;0.40;;;32.50;84.00;;;;;;4966983;28;20039;-76
2022/01/04 04:06:30;;;;;;;2.22;0.80;;;32.60;84.20;;;;;;4967563;28;20037;-77
2022/01/04 04:08:57;;;;;;;7.50;1.17;;;32.60;85.20;;;;;;4964997;28;20170;-76
2022/01/04 04:11:26;;;;;;;5.30;0.82;;;32.90;85.40;;;;;;4985316;28;20019;-75
2022/01/04 04:13:53;;;;;;;3.45;1.15;;;33.20;84.40;;;;;;4968642;28;20041;-76
2022/01/04 04:16:21;;;;;;;6.45;0.85;;;33.10;84.40;;;;;;4980064;28;20038;-75
2022/01/04 04:18:48;;;;;;;4.22;1.17;;;33.10;84.30;;;;;;4965936;28;20039;-77
2022/01/04 04:21:15;;;;;;;6.32;1.00;;;32.60;84.60;;;;;;4962032;28;20023;-75
2022/01/04 04:23:43;;;;;;;6.18;0.90;;;32.50;84.80;;;;;;4963579;28;20046;-75
2022/01/04 04:26:10;;;;;;;3.72;1.35;;;32.80;85.10;;;;;;4971660;28;20429;-75
2022/01/04 04:28:38;;;;;;;2.72;0.80;;;32.80;85.00;;;;;;4967154;28;20027;-76
2022/01/04 04:31:06;;;;;;;4.68;0.82;;;33.30;83.90;;;;;;4975597;28;20034;-76
2022/01/04 04:33:34;;;;;;;7.88;1.58;;;33.60;84.70;;;;;;4958864;28;20046;-76
2022/01/04 04:36:01;;;;;;;4.53;0.60;;;33.70;83.10;;;;;;4978296;28;20034;-76
2022/01/04 04:38:29;;;;;;;3.60;1.27;;;33.50;85.10;;;;;;4965061;28;20036;-75
2022/01/04 04:40:56;;;;;;;7.10;1.10;;;33.20;85.80;;;;;;4975804;28;20421;-75
2022/01/04 04:43:24;;;;;;;7.22;0.90;;;32.30;85.60;;;;;;4976666;28;20081;-76
2022/01/04 04:45:51;;;;;;;6.85;1.02;;;31.60;87.30;;;;;;4967770;28;20502;-78
2022/01/04 04:48:18;;;;;;;6.43;0.90;;;31.00;88.70;;;;;;4977462;28;20120;-77
2022/01/04 04:50:46;;;;;;;5.70;1.15;;;30.80;89.80;;;;;;4968876;28;20444;-77
2022/01/04 04:53:13;;;;;;;5.68;1.33;;;30.90;90.00;;;;;;4959864;28;20109;-77
2022/01/04 04:55:41;;;;;;;4.60;0.75;;;31.30;89.40;;;;;;4970444;28;20022;-76
2022/01/04 04:58:09;;;;;;;7.35;1.02;;;31.80;88.70;;;;;;4969062;28;20120;-76
2022/01/04 05:00:37;;;;;;;2.83;1.05;;;32.00;89.40;;;;;;4974399;28;20173;-78
2022/01/04 05:03:04;;;;;;;3.47;0.82;;;32.20;87.20;;;;;;4965120;28;20035;-75
2022/01/04 05:05:32;;;;;;;7.97;1.42;;;32.40;86.80;;;;;;4970016;28;20106;-76
2022/01/04 05:07:59;;;;;;;5.57;1.08;;;32.30;86.20;;;;;;4970246;28;20122;-76
2022/01/04 05:10:26;;;;;;;7.22;1.65;;;31.90;86.80;;;;;;4968144;28;20030;-76
2022/01/04 05:12:54;;;;;;;4.10;0.75;;;31.80;87.10;;;;;;4966749;28;20365;-79
2022/01/04 05:15:21;;;;;;;3.60;0.90;;;31.40;87.10;;;;;;4959255;28;20027;-76
2022/01/04 05:17:48;;;;;;;7.57;0.90;;;31.40;88.70;;;;;;4960315;28;20750;-75
2022/01/04 05:20:16;;;;;;;3.42;0.73;;;31.60;88.40;;;;;;4957516;28;20031;-76
2022/01/04 05:22:43;;;;;;;6.03;0.90;;;31.80;87.00;;;;;;4962131;28;20042;-75
2022/01/04 05:25:11;;;;;;;2.90;0.70;;;31.60;87.50;;;;;;4963140;28;20097;-76
2022/01/04 05:27:38;;;;;;;4.53;0.90;;;31.30;87.60;;;;;;4965279;28;20034;-76
2022/01/04 05:30:06;;;;;;;4.50;1.25;;;30.90;87.90;;;;;;4983642;28;20034;-78
2022/01/04 05:32:34;;;;;;;5.88;0.88;;;30.30;89.30;;;;;;4965682;28;20046;-76
2022/01/04 05:35:01;;;;;;;7.63;0.77;;;30.20;89.80;;;;;;4970445;28;20046;-76
2022/01/04 05:37:29;;;;;;;3.38;1.13;;;30.30;89.10;;;;;;4970390;28;20131;-82
2022/01/04 05:39:56;;;;;;;5.10;1.60;;;30.40;89.10;;;;;;4970570;28;20049;-77
2022/01/04 05:42:24;;;;;;;4.45;1.08;;;30.70;88.20;;;;;;4961770;28;20145;-76
2022/01/04 05:44:51;;;;;;;2.58;0.50;;;30.50;88.90;;;;;;4955717;28;20105;-78
2022/01/04 05:47:18;;;;;;;4.38;0.80;;;30.40;90.10;;;;;;4965016;28;20039;-74
2022/01/04 05:49:46;;;;;;;5.93;1.00;;;30.10;90.10;;;;;;4966303;28;20422;-77
2022/01/04 05:52:13;;;;;;;5.40;0.80;;;29.80;90.40;;;;;;4968103;28;20022;-77
2022/01/04 05:54:42;;;;;;;5.13;0.50;;;29.60;90.20;;;;;;4967269;28;20426;-77
2022/01/04 05:57:10;;;;;;;2.65;0.50;;;29.90;90.40;;;;;;4970549;28;20039;-77
2022/01/04 05:59:37;;;;;;;3.55;0.85;;;30.00;89.80;;;;;;4972259;28;20069;-75
2022/01/04 06:02:05;;;;;;;4.63;0.60;;;30.10;89.60;;;;;;4962273;28;20031;-76
2022/01/04 06:04:32;;;;;;;4.72;0.85;;;30.20;88.80;;;;;;4967507;28;20050;-78
2022/01/04 06:07:00;;;;;;;4.38;1.08;;;29.90;89.50;;;;;;4965038;28;20035;-77
2022/01/04 06:09:38;;;;;;;3.33;1.13;;;30.00;89.70;;;;;;4967040;28;20173;-77
2022/01/04 06:14:50;;;;;;;4.55;0.70;;;30.20;89.50;;;;;;4988471;28;20042;-74
2022/01/04 06:14:54;;;;;;;3.22;0.63;;;30.20;89.00;;;;;;4965636;28;20046;-75
2022/01/04 06:17:31;;;;;;;6.07;0.82;;;30.10;89.10;;;;;;4964818;28;20385;-75
2022/01/04 06:20:00;;;;;;;5.32;1.52;;;30.00;89.30;;;;;;4963502;28;20628;-75
2022/01/04 06:22:28;;;;;;;2.17;0.63;;;29.80;90.10;;;;;;4960296;28;20043;-75
2022/01/04 06:24:56;;;;;;;4.28;0.98;;;29.70;90.00;;;;;;4972875;28;20049;-75
2022/01/04 06:27:25;;;;;;;4.80;1.25;;;29.50;90.40;;;;;;4965633;28;20529;-76
2022/01/04 06:29:52;;;;;;;5.97;0.88;;;29.40;90.10;;;;;;4970935;28;20093;-75
2022/01/04 06:32:20;;;;;;;3.88;0.75;;;29.50;90.50;;;;;;4968954;28;20035;-76
2022/01/04 06:34:47;;;;;;;4.95;0.88;;;29.80;90.70;;;;;;4967958;28;20061;-75
2022/01/04 06:37:15;;;;;;;3.60;0.60;;;29.90;90.50;;;;;;4970842;28;20030;-76
2022/01/04 06:39:44;;;;;;;4.43;0.65;;;30.00;90.30;;;;;;4974784;28;20049;-76
2022/01/04 06:42:12;;;;;;;2.33;0.88;;;30.00;90.20;;;;;;4973832;28;20449;-75
2022/01/04 06:44:41;;;;;;;2.47;0.52;;;29.90;90.00;;;;;;4975165;28;20054;-75
2022/01/04 06:47:10;;;;;;;3.47;0.60;;;29.70;90.40;;;;;;4971966;28;20113;-74
2022/01/04 06:49:38;;;;;;;4.97;0.70;;;29.50;90.80;;;;;;4973181;28;20034;-75
2022/01/04 06:52:06;;;;;;;4.78;1.05;;;29.50;91.00;;;;;;4974119;28;20447;-75
2022/01/04 06:54:33;;;;;;;3.40;1.00;;;29.50;90.60;;;;;;4971176;28;20034;-75
2022/01/04 06:57:01;;;;;;;3.08;0.73;;;29.50;90.90;;;;;;4971128;28;21186;-75
2022/01/04 06:59:28;;;;;;;4.78;1.33;;;29.30;90.80;;;;;;4971762;28;20130;-75
2022/01/04 07:01:56;;;;;;;5.40;0.80;;;29.10;90.70;;;;;;4973898;28;20109;-76
2022/01/04 07:04:23;;;;;;;2.67;1.00;;;28.80;90.80;;;;;;4971584;28;20029;-75
2022/01/04 07:06:50;;;;;;;3.92;0.65;;;28.60;91.30;;;;;;4973065;28;20061;-75
2022/01/04 07:09:18;;;;;;;4.88;0.80;;;28.40;91.60;;;;;;4973109;28;20022;-76
2022/01/04 07:11:45;;;;;;;3.70;0.80;;;28.40;91.70;;;;;;4977140;28;20050;-76
2022/01/04 07:14:12;;;;;;;3.55;0.93;;;28.30;91.50;;;;;;4973975;28;20023;-75
2022/01/04 07:16:39;;;;;;;2.15;0.60;;;28.30;91.40;;;;;;4966620;28;20037;-74
2022/01/04 07:19:07;;;;;;;6.97;0.85;;;28.40;91.40;;;;;;4975545;28;20019;-74
2022/01/04 07:21:36;;;;;;;3.72;0.77;;;28.40;91.40;;;;;;4974262;28;20042;-77
2022/01/04 07:24:05;;;;;;;3.88;1.00;;;28.40;91.40;;;;;;4959398;28;20462;-77
2022/01/04 07:26:32;;;;;;;3.05;0.47;;;28.30;91.30;;;;;;4982174;28;20026;-76
2022/01/04 07:28:59;;;;;;;7.47;0.85;;;28.10;91.50;;;;;;4970074;28;20034;-76
2022/01/04 07:31:27;;;;;;;3.47;0.40;;;28.00;91.90;;;;;;4972899;28;20031;-76
2022/01/04 07:33:54;;;;;;;2.20;0.52;;;28.00;92.10;;;;;;4969640;28;20030;-77
2022/01/04 07:36:21;;;;;;;4.68;0.60;;;28.10;92.00;;;;;;4972897;28;20035;-77
2022/01/04 07:38:49;;;;;;;5.63;0.70;;;28.20;91.60;;;;;;4971233;28;20054;-76
2022/01/04 07:41:16;;;;;;;2.45;1.10;;;28.20;91.50;;;;;;4981758;28;20038;-74
2022/01/04 07:43:43;;;;;;;5.28;0.82;;;28.20;91.50;;;;;;4974525;28;20034;-75
2022/01/04 07:46:11;;;;;;;4.43;0.70;;;28.20;91.30;;;;;;4975269;28;20050;-75
2022/01/04 07:48:38;;;;;;;1.45;0.63;;;28.10;90.80;;;;;;4983076;28;20496;-75
2022/01/04 07:51:05;;;;;;;2.33;0.38;;;28.00;90.80;;;;;;4961768;28;20065;-75
2022/01/04 07:53:33;;;;;;;2.70;0.63;;;27.80;91.10;;;;;;4972549;28;20035;-76
2022/01/04 07:56:00;;;;;;;3.28;0.75;;;27.90;91.10;;;;;;4983265;28;20118;-75
2022/01/04 07:58:29;;;;;;;5.30;0.57;;;27.90;91.10;;;;;;4979948;28;20046;-75
2022/01/04 08:00:56;;;;;;;3.85;0.60;;;27.70;91.00;;;;;;4975117;28;20026;-75
2022/01/04 08:03:23;;;;;;;4.97;0.80;;;27.70;91.10;;;;;;4978297;28;20058;-76
2022/01/04 08:05:51;;;;;;;4.32;0.60;;;27.60;91.10;;;;;;4988710;28;20030;-76
2022/01/04 08:08:18;;;;;;;1.63;0.35;;;27.50;91.30;;;;;;4981032;28;20355;-76
2022/01/04 08:10:47;;;;;;;3.53;0.82;;;27.30;91.40;;;;;;4984583;28;20489;-78
2022/01/04 08:13:15;;;;;;;2.90;0.50;;;27.20;91.70;;;;;;4967273;28;20059;-76
2022/01/04 08:15:43;;;;;;;4.55;0.45;;;27.10;91.90;;;;;;4966576;28;20034;-76
2022/01/04 08:18:10;;;;;;;2.78;0.45;;;26.90;92.00;;;;;;4968024;28;20107;-74
2022/01/04 08:20:37;;;;;;;4.68;0.70;;;26.80;92.30;;;;;;4964111;28;20038;-75
2022/01/04 08:23:05;;;;;;;2.33;0.50;;;26.70;92.50;;;;;;4968391;28;20255;-77
2022/01/04 08:25:32;;;;;;;4.53;0.63;;;26.60;92.60;;;;;;4972337;28;20015;-78
2022/01/04 08:27:59;;;;;;;6.32;1.75;;;26.50;92.90;;;;;;4972657;28;20022;-76
2022/01/04 08:30:27;;;;;;;1.55;0.40;;;26.40;93.00;;;;;;4974473;28;20026;-76
2022/01/04 08:32:54;;;;;;;5.53;0.95;;;26.30;93.10;;;;;;4973354;28;20058;-76
2022/01/04 08:35:22;;;;;;;4.70;0.40;;;26.30;93.30;;;;;;4969814;28;20112;-78
2022/01/04 08:37:49;;;;;;;2.83;0.50;;;26.30;93.50;;;;;;4982592;28;20038;-83
2022/01/04 08:40:17;;;;;;;5.53;0.70;;;26.20;93.80;;;;;;4974948;28;20035;-83
2022/01/04 08:42:45;;;;;;;4.85;0.65;;;26.00;94.20;;;;;;4970278;28;20537;-80
2022/01/04 08:45:12;;;;;;;3.35;1.10;;;25.80;94.30;;;;;;4956849;28;20019;-80
2022/01/04 08:47:40;;;;;;;2.80;0.77;;;25.70;94.70;;;;;;4965628;28;20062;-82
2022/01/04 08:50:10;;;;;;;5.55;0.65;;;25.60;95.20;;;;;;4961774;28;20068;-82
2022/01/04 08:52:38;;;;;;;8.57;0.80;;;25.50;95.40;;;;;;4972326;28;20119;-84
2022/01/04 08:55:06;;;;;;;5.07;0.60;;;25.50;95.80;;;;;;4979356;28;20073;-82
2022/01/04 08:57:34;;;;;;;7.65;0.55;;;25.40;95.90;;;;;;4982681;28;20034;-80
2022/01/04 09:00:04;;;;;;;1.88;0.40;;;25.40;95.80;;;;;;4977136;28;20473;-77
2022/01/04 09:02:32;;;;;;;1.40;0.50;;;25.30;95.90;;;;;;4980047;28;20066;-77
2022/01/04 09:05:00;;;;;;;6.53;0.50;;;25.30;96.20;;;;;;4976954;28;20023;-79
2022/01/04 09:07:28;;;;;;;6.93;0.63;;;25.20;96.40;;;;;;4988835;28;20023;-78
2022/01/04 09:09:55;;;;;;;4.25;0.80;;;25.20;96.60;;;;;;4983221;28;20038;-75
2022/01/04 09:12:27;;;;;;;2.47;0.38;;;25.10;96.60;;;;;;4987919;28;20061;-74
2022/01/04 09:14:58;;;;;;;3.25;0.73;;;25.10;96.80;;;;;;4979536;28;20038;-75
2022/01/04 09:20:13;;;;;;;2.53;0.50;;;24.90;96.90;;;;;;4981711;28;20034;-75
2022/01/04 09:22:42;;;;;;;5.15;0.70;;;24.80;96.80;;;;;;4984019;28;20043;-77
2022/01/04 09:25:10;;;;;;;5.35;0.60;;;24.70;96.90;;;;;;4971311;28;20102;-78
2022/01/04 09:27:38;;;;;;;1.48;0.47;;;24.70;97.00;;;;;;4967955;28;20483;-79
2022/01/04 09:30:07;;;;;;;6.53;0.68;;;24.70;97.30;;;;;;4979289;28;20061;-80
2022/01/04 09:32:35;;;;;;;3.30;0.60;;;24.60;97.40;;;;;;4986360;28;20407;-79
2022/01/04 09:35:04;;;;;;;1.92;0.45;;;24.60;97.60;;;;;;4979750;28;20102;-77
2022/01/04 09:37:31;;;;;;;7.82;0.80;;;24.50;97.60;;;;;;4968911;28;20182;-76
2022/01/04 09:39:58;;;;;;;5.43;1.00;;;24.50;97.80;;;;;;4981084;28;20034;-76
2022/01/04 09:42:26;;;;;;;8.05;0.50;;;24.40;97.80;;;;;;4978698;28;20035;-78
2022/01/04 09:44:53;;;;;;;1.35;0.57;;;24.40;97.80;;;;;;4970774;28;20031;-76
2022/01/04 09:47:21;;;;;;;1.77;0.20;;;24.40;98.00;;;;;;4974539;28;20030;-78
2022/01/04 09:49:48;;;;;;;3.05;0.50;;;24.40;98.10;;;;;;4988577;28;20034;-76
2022/01/04 09:52:21;;;;;;;9.90;1.63;;;24.30;98.30;;;;;;4970909;28;20034;-77
2022/01/04 09:54:53;;;;;;;4.97;1.25;;;24.20;98.60;;;;;;4965746;28;20871;-74
2022/01/04 09:57:21;;;;;;;4.78;1.00;;;24.20;98.80;;;;;;4988532;28;20026;-77
2022/01/04 09:59:49;;;;;;;5.68;0.93;;;24.20;98.90;;;;;;4978469;28;20383;-77
2022/01/04 10:02:20;;;;;;;1.85;0.77;;;24.10;99.10;;;;;;4973465;28;20513;-75
2022/01/04 10:04:48;;;;;;;2.38;1.00;;;24.10;99.30;;;;;;4973356;28;20026;-78
2022/01/04 10:07:20;;;;;;;2.35;0.40;;;24.10;99.50;;;;;;4991987;28;20060;-77
2022/01/04 10:09:52;;;;;;;5.07;0.85;;;24.10;99.90;;;;;;4982791;28;20497;-76
2022/01/04 10:12:24;;;;;;;5.50;0.70;;;24.10;99.90;;;;;;4970693;28;20073;-79
2022/01/04 10:14:55;;;;;;;6.25;0.82;;;24.00;99.90;;;;;;4965142;28;20117;-78
2022/01/04 10:17:28;;;;;;;5.18;0.90;;;24.00;99.90;;;;;;4977674;28;20037;-79
2022/01/04 10:19:58;;;;;;;3.42;0.55;;;23.90;99.90;;;;;;4982313;28;20026;-77
2022/01/04 10:22:27;;;;;;;2.47;1.00;;;23.90;99.90;;;;;;4970195;28;20042;-77
2022/01/04 10:25:03;;;;;;;6.68;1.25;;;23.90;99.90;;;;;;4967864;28;20042;-75
2022/01/04 10:27:42;;;;;;;4.28;0.43;;;23.90;99.90;;;;;;4970886;28;20059;-78
2022/01/04 10:30:20;;;;;;;3.13;0.55;;;23.90;99.90;;;;;;4972884;28;20031;-79
2022/01/04 10:33:02;;;;;;;1.58;0.43;;;23.90;99.90;;;;;;4971491;28;20023;-76
2022/01/04 10:35:46;;;;;;;5.32;0.70;;;23.80;99.90;;;;;;4974427;28;20117;-75
2022/01/04 10:38:31;;;;;;;3.80;1.35;;;23.80;99.90;;;;;;4971416;28;20027;-77
2022/01/04 10:41:00;;;;;;;2.92;1.10;;;23.80;99.90;;;;;;4962911;28;20097;-77
2022/01/04 10:43:33;;;;;;;3.97;0.45;;;23.70;99.90;;;;;;4971575;28;20031;-76
2022/01/04 10:46:02;;;;;;;4.65;0.85;;;23.70;99.90;;;;;;4991248;28;20026;-80
2022/01/04 10:48:32;;;;;;;4.78;1.05;;;23.70;99.90;;;;;;4967992;28;20023;-79
2022/01/04 10:51:08;;;;;;;2.30;0.68;;;23.60;99.90;;;;;;4967051;28;20026;-78
2022/01/04 10:53:48;;;;;;;3.17;0.68;;;23.70;99.90;;;;;;4967396;28;20034;-79
2022/01/04 10:56:41;;;;;;;4.43;0.85;;;23.60;99.90;;;;;;4968445;28;21576;-77
2022/01/04 10:59:11;;;;;;;6.15;1.15;;;23.60;99.90;;;;;;4970691;28;20051;-78
2022/01/04 11:01:47;;;;;;;4.28;0.80;;;23.60;99.90;;;;;;4973746;28;20034;-80
2022/01/04 11:04:19;;;;;;;2.97;0.50;;;23.50;99.90;;;;;;4966379;28;20473;-78
2022/01/04 11:06:48;;;;;;;4.50;0.77;;;23.50;99.90;;;;;;4965108;28;20774;-76
2022/01/04 11:09:19;;;;;;;3.90;1.33;;;23.50;99.90;;;;;;4972298;28;20117;-77
2022/01/04 11:11:46;;;;;;;6.80;0.73;;;23.50;99.90;;;;;;4969470;28;20101;-79
2022/01/04 11:14:14;;;;;;;5.13;0.73;;;23.50;99.90;;;;;;4972064;28;20077;-77
2022/01/04 11:16:43;;;;;;;2.13;1.20;;;23.40;99.90;;;;;;4965836;28;20041;-79
2022/01/04 11:19:10;;;;;;;2.72;0.65;;;23.40;99.90;;;;;;4974796;28;20066;-81
2022/01/04 11:21:43;;;;;;;3.55;0.60;;;23.40;99.90;;;;;;4981251;28;20039;-76
2022/01/04 11:24:12;;;;;;;7.55;0.55;;;23.40;99.90;;;;;;4971194;28;20042;-76
2022/01/04 11:26:49;;;;;;;4.18;0.68;;;23.40;99.90;;;;;;4967665;28;20078;-77
2022/01/04 11:29:21;;;;;;;3.38;0.65;;;23.30;99.90;;;;;;4976765;28;20089;-78
2022/01/04 11:32:08;;;;;;;7.22;1.25;;;23.30;99.90;;;;;;4973393;28;20095;-83
2022/01/04 11:35:16;;;;;;;5.40;1.20;;;23.30;99.90;;;;;;4974558;28;20076;-79
2022/01/04 11:38:03;;;;;;;0.50;0.40;;;23.30;99.90;;;;;;4973129;28;20103;-75
2022/01/04 11:40:42;;;;;;;5.43;0.68;;;23.30;99.90;;;;;;4970624;28;20615;-80
2022/01/04 11:43:31;;;;;;;4.97;0.73;;;23.20;99.90;;;;;;4977333;28;20058;-78
2022/01/04 11:45:58;;;;;;;1.23;0.50;;;23.20;99.90;;;;;;4974429;28;20413;-78
2022/01/04 11:48:40;;;;;;;3.33;0.55;;;23.10;99.90;;;;;;4972551;28;20035;-78
2022/01/04 11:51:34;;;;;;;3.72;0.90;;;23.10;99.90;;;;;;4972017;28;20038;-78
2022/01/04 11:54:20;;;;;;;5.40;0.60;;;23.10;99.90;;;;;;4968489;28;20034;-79
2022/01/04 11:57:09;;;;;;;2.67;0.68;;;23.00;99.90;;;;;;4967504;28;20023;-75
2022/01/04 11:59:37;;;;;;;4.28;0.55;;;22.90;99.90;;;;;;4969055;28;20042;-76
2022/01/04 12:02:23;;;;;;;2.42;0.63;;;23.00;99.90;;;;;;4970104;28;20031;-77
2022/01/04 12:04:53;;;;;;;2.83;0.82;;;22.90;99.90;;;;;;4973240;28;20515;-76
2022/01/04 12:07:44;;;;;;;3.72;0.50;;;22.90;99.90;;;;;;4965640;28;20034;-77
2022/01/04 12:10:21;;;;;;;5.28;0.57;;;22.80;99.90;;;;;;4971848;28;20517;-80
2022/01/04 12:13:09;;;;;;;4.72;0.60;;;22.90;99.90;;;;;;4970508;28;20027;-76
2022/01/04 12:15:36;;;;;;;4.35;0.73;;;22.90;99.90;;;;;;4970445;28;20022;-77
2022/01/04 12:18:23;;;;;;;4.90;0.65;;;22.90;99.90;;;;;;4960650;28;20201;-79
2022/01/04 12:20:52;;;;;;;2.10;0.60;;;22.90;99.90;;;;;;4963715;28;20061;-77
2022/01/04 12:23:35;;;;;;;4.13;0.60;;;23.00;99.90;;;;;;4970209;28;20050;-77
2022/01/04 12:26:05;;;;;;;7.32;0.80;;;23.00;99.90;;;;;;4975206;28;20777;-76
2022/01/04 12:29:06;;;;;;;2.45;0.82;;;23.00;99.90;;;;;;4971312;28;20029;-74
2022/01/04 12:31:35;;;;;;;5.20;0.63;;;23.10;99.90;;;;;;4970471;28;20110;-81
2022/01/04 12:34:07;;;;;;;5.68;0.95;;;23.10;99.90;;;;;;4976358;28;20162;-79
2022/01/04 12:36:38;;;;;;;2.28;0.57;;;23.10;99.90;;;;;;4970421;28;20504;-77
2022/01/04 12:39:11;;;;;;;1.52;0.70;;;23.10;99.90;;;;;;4972878;28;20030;-79
2022/01/04 12:41:40;;;;;;;6.07;1.30;;;23.10;99.90;;;;;;4965145;28;20038;-74
2022/01/04 12:44:09;;;;;;;2.03;0.50;;;23.10;99.90;;;;;;4977107;28;20133;-76
2022/01/04 12:46:39;;;;;;;3.40;0.73;;;23.10;99.90;;;;;;4963079;28;20055;-76
2022/01/04 12:49:11;;;;;;;1.73;0.57;;;23.10;99.90;;;;;;4964367;28;20054;-79
2022/01/04 12:51:57;;;;;;;6.70;0.60;;;23.10;99.90;;;;;;4977219;28;20031;-79
2022/01/04 12:54:30;;;;;;;6.50;1.65;;;23.10;99.90;;;;;;4965077;28;20061;-77
2022/01/04 12:56:59;;;;;;;2.63;1.00;;;23.10;99.90;;;;;;4966633;28;20035;-78
2022/01/04 12:59:26;;;;;;;4.15;0.93;;;23.00;99.90;;;;;;4969679;28;20031;-78
2022/01/04 13:01:59;;;;;;;1.77;0.40;;;23.00;99.90;;;;;;4968861;28;20047;-78
2022/01/04 13:04:35;;;;;;;7.07;1.42;;;23.00;99.90;;;;;;4965647;28;20023;-79
2022/01/04 13:07:22;;;;;;;2.47;0.80;;;22.90;99.90;;;;;;4970320;28;20386;-79